sensor_id;sensor_type;location;lat;lon;timestamp;temperature;humidity
18317;DHT22;9284;52.298;21.164;2023-01-29T04:11:56;-0.80;99.90
18317;DHT22;9284;52.298;21.164;2023-01-29T04:14:30;-0.80;1.00
18317;DHT22;9284;52.298;21.164;2023-01-29T04:17:07;-0.90;1.00
18317;DHT22;9284;52.298;21.164;2023-01-29T04:19:45;-0.70;99.90
18317;DHT22;9284;52.298;21.164;2023-01-29T04:22:18;-0.80;99.90
18317;DHT22;9284;52.298;21.164;2023-01-29T04:24:50;-0.80;99.90
18317;DHT22;9284;52.298;21.164;2023-01-29T04:27:28;-0.80;99.90
18317;DHT22;9284;52.298;21.164;2023-01-29T04:30:21;-0.90;70.30
18317;DHT22;9284;52.298;21.164;2023-01-29T04:33:06;-0.90;99.90
18317;DHT22;9284;52.298;21.164;2023-01-29T04:35:54;-0.90;12.80
18317;DHT22;9284;52.298;21.164;2023-01-29T04:38:36;-0.90;91.50
18317;DHT22;9284;52.298;21.164;2023-01-29T04:41:13;-0.80;95.60
18317;DHT22;9284;52.298;21.164;2023-01-29T04:43:50;-0.90;99.90
18317;DHT22;9284;52.298;21.164;2023-01-29T04:46:26;-0.70;99.90
18317;DHT22;9284;52.298;21.164;2023-01-29T04:49:04;-0.80;93.20
18317;DHT22;9284;52.298;21.164;2023-01-29T04:51:46;-0.70;18.10
18317;DHT22;9284;52.298;21.164;2023-01-29T04:54:20;-0.80;40.00
18317;DHT22;9284;52.298;21.164;2023-01-29T04:56:54;-0.80;1.00
18317;DHT22;9284;52.298;21.164;2023-01-29T04:59:30;-0.80;9.00
18317;DHT22;9284;52.298;21.164;2023-01-29T05:02:07;-0.70;63.50
18317;DHT22;9284;52.298;21.164;2023-01-29T05:04:37;-0.70;99.90
18317;DHT22;9284;52.298;21.164;2023-01-29T05:07:10;-0.80;99.90
18317;DHT22;9284;52.298;21.164;2023-01-29T05:09:41;-0.80;1.00
18317;DHT22;9284;52.298;21.164;2023-01-29T05:12:13;-0.80;99.90
18317;DHT22;9284;52.298;21.164;2023-01-29T05:14:46;-0.80;1.00
18317;DHT22;9284;52.298;21.164;2023-01-29T05:17:18;-0.70;99.90
18317;DHT22;9284;52.298;21.164;2023-01-29T05:19:48;-0.80;99.90
18317;DHT22;9284;52.298;21.164;2023-01-29T05:22:17;-0.80;99.90
18317;DHT22;9284;52.298;21.164;2023-01-29T05:24:48;-0.70;1.00
18317;DHT22;9284;52.298;21.164;2023-01-29T05:27:23;-0.70;1.00
18317;DHT22;9284;52.298;21.164;2023-01-29T05:30:12;-0.60;1.00
18317;DHT22;9284;52.298;21.164;2023-01-29T05:32:41;-0.70;16.50
18317;DHT22;9284;52.298;21.164;2023-01-29T05:35:09;-0.70;78.80
18317;DHT22;9284;52.298;21.164;2023-01-29T05:37:37;-0.80;99.90
18317;DHT22;9284;52.298;21.164;2023-01-29T05:40:07;-0.80;23.70
18317;DHT22;9284;52.298;21.164;2023-01-29T05:42:36;-0.80;99.90
18317;DHT22;9284;52.298;21.164;2023-01-29T05:45:05;-0.80;99.90
18317;DHT22;9284;52.298;21.164;2023-01-29T05:47:35;-0.80;70.00
18317;DHT22;9284;52.298;21.164;2023-01-29T05:50:04;-0.70;46.00
18317;DHT22;9284;52.298;21.164;2023-01-29T05:52:33;-0.70;1.00
18317;DHT22;9284;52.298;21.164;2023-01-29T05:55:01;-0.70;1.00
18317;DHT22;9284;52.298;21.164;2023-01-29T05:57:29;-0.70;1.00
18317;DHT22;9284;52.298;21.164;2023-01-29T05:59:57;-0.70;1.00
18317;DHT22;9284;52.298;21.164;2023-01-29T06:02:28;-0.70;1.00
18317;DHT22;9284;52.298;21.164;2023-01-29T06:04:58;-0.70;1.00
18317;DHT22;9284;52.298;21.164;2023-01-29T06:07:26;-0.60;1.00
18317;DHT22;9284;52.298;21.164;2023-01-29T06:09:55;-0.60;1.00
18317;DHT22;9284;52.298;21.164;2023-01-29T06:12:23;-0.70;1.00
18317;DHT22;9284;52.298;21.164;2023-01-29T06:14:52;-0.60;1.00
18317;DHT22;9284;52.298;21.164;2023-01-29T06:17:20;-0.50;1.00
18317;DHT22;9284;52.298;21.164;2023-01-29T06:19:49;-0.70;1.00
18317;DHT22;9284;52.298;21.164;2023-01-29T06:22:19;-0.60;1.00
18317;DHT22;9284;52.298;21.164;2023-01-29T06:24:47;-0.60;1.00
18317;DHT22;9284;52.298;21.164;2023-01-29T06:27:15;-0.60;1.00
18317;DHT22;9284;52.298;21.164;2023-01-29T06:29:44;-0.60;1.00
18317;DHT22;9284;52.298;21.164;2023-01-29T06:32:13;-0.50;1.00
18317;DHT22;9284;52.298;21.164;2023-01-29T06:34:42;-0.60;1.00
18317;DHT22;9284;52.298;21.164;2023-01-29T06:37:12;-0.50;1.00
18317;DHT22;9284;52.298;21.164;2023-01-29T06:39:42;-0.50;1.00
18317;DHT22;9284;52.298;21.164;2023-01-29T06:42:10;-0.60;1.00
18317;DHT22;9284;52.298;21.164;2023-01-29T06:44:39;-0.40;1.00
18317;DHT22;9284;52.298;21.164;2023-01-29T06:47:07;-0.50;1.00
18317;DHT22;9284;52.298;21.164;2023-01-29T06:49:36;-0.50;1.00
18317;DHT22;9284;52.298;21.164;2023-01-29T06:52:04;-0.50;1.00
18317;DHT22;9284;52.298;21.164;2023-01-29T06:54:33;-0.50;1.00
18317;DHT22;9284;52.298;21.164;2023-01-29T06:57:02;-0.60;1.00
18317;DHT22;9284;52.298;21.164;2023-01-29T06:59:31;-0.50;1.00
18317;DHT22;9284;52.298;21.164;2023-01-29T07:01:59;-0.50;1.00
18317;DHT22;9284;52.298;21.164;2023-01-29T07:04:27;-0.50;1.00
18317;DHT22;9284;52.298;21.164;2023-01-29T07:06:58;-0.50;1.00
18317;DHT22;9284;52.298;21.164;2023-01-29T07:09:26;-0.40;1.00
18317;DHT22;9284;52.298;21.164;2023-01-29T07:11:54;-0.40;1.00
18317;DHT22;9284;52.298;21.164;2023-01-29T07:14:24;-0.40;1.00
18317;DHT22;9284;52.298;21.164;2023-01-29T07:16:52;-0.40;1.00
18317;DHT22;9284;52.298;21.164;2023-01-29T07:19:21;-0.40;1.00
18317;DHT22;9284;52.298;21.164;2023-01-29T07:21:49;-0.40;99.90
18317;DHT22;9284;52.298;21.164;2023-01-29T07:24:18;-0.40;1.00
18317;DHT22;9284;52.298;21.164;2023-01-29T07:26:46;-0.40;99.90
18317;DHT22;9284;52.298;21.164;2023-01-29T07:29:14;-0.40;1.00
18317;DHT22;9284;52.298;21.164;2023-01-29T07:31:44;-0.40;99.90
18317;DHT22;9284;52.298;21.164;2023-01-29T07:34:12;-0.30;99.90
18317;DHT22;9284;52.298;21.164;2023-01-29T07:36:41;-0.20;99.90
18317;DHT22;9284;52.298;21.164;2023-01-29T07:39:09;-0.30;99.90
18317;DHT22;9284;52.298;21.164;2023-01-29T07:41:37;-0.30;99.90
18317;DHT22;9284;52.298;21.164;2023-01-29T07:44:14;-0.30;99.90
18317;DHT22;9284;52.298;21.164;2023-01-29T07:46:44;-0.20;99.90
18317;DHT22;9284;52.298;21.164;2023-01-29T07:49:12;-0.20;99.90
18317;DHT22;9284;52.298;21.164;2023-01-29T07:51:40;0.00;99.90
18317;DHT22;9284;52.298;21.164;2023-01-29T07:54:09;0.00;99.90
18317;DHT22;9284;52.298;21.164;2023-01-29T07:56:37;-0.10;99.90
18317;DHT22;9284;52.298;21.164;2023-01-29T07:59:05;-0.10;99.90
18317;DHT22;9284;52.298;21.164;2023-01-29T08:01:33;-0.10;99.90
18317;DHT22;9284;52.298;21.164;2023-01-29T08:04:03;0.00;99.90
18317;DHT22;9284;52.298;21.164;2023-01-29T08:06:31;-0.10;99.90
18317;DHT22;9284;52.298;21.164;2023-01-29T08:09:00;-0.10;99.90
18317;DHT22;9284;52.298;21.164;2023-01-29T08:11:28;-0.10;99.90
18317;DHT22;9284;52.298;21.164;2023-01-29T08:13:56;-0.10;99.90
18317;DHT22;9284;52.298;21.164;2023-01-29T08:16:24;-0.10;99.90
18317;DHT22;9284;52.298;21.164;2023-01-29T08:18:53;0.00;99.90
18317;DHT22;9284;52.298;21.164;2023-01-29T08:21:22;-0.10;99.90
18317;DHT22;9284;52.298;21.164;2023-01-29T08:23:51;0.00;99.90
18317;DHT22;9284;52.298;21.164;2023-01-29T08:26:19;0.00;99.90
18317;DHT22;9284;52.298;21.164;2023-01-29T08:28:47;0.10;99.90
18317;DHT22;9284;52.298;21.164;2023-01-29T08:31:16;0.10;99.90
18317;DHT22;9284;52.298;21.164;2023-01-29T08:33:46;0.20;99.90
18317;DHT22;9284;52.298;21.164;2023-01-29T08:36:15;0.20;2.60
18317;DHT22;9284;52.298;21.164;2023-01-29T08:38:44;0.20;23.30
18317;DHT22;9284;52.298;21.164;2023-01-29T08:41:12;0.20;33.80
18317;DHT22;9284;52.298;21.164;2023-01-29T08:43:41;0.20;47.80
18317;DHT22;9284;52.298;21.164;2023-01-29T08:46:09;0.20;2.80
18317;DHT22;9284;52.298;21.164;2023-01-29T08:48:37;0.10;30.50
18317;DHT22;9284;52.298;21.164;2023-01-29T08:51:06;0.20;32.90
18317;DHT22;9284;52.298;21.164;2023-01-29T08:53:34;0.20;11.20
18317;DHT22;9284;52.298;21.164;2023-01-29T08:56:04;0.20;74.10
18317;DHT22;9284;52.298;21.164;2023-01-29T08:58:33;0.20;88.60
18317;DHT22;9284;52.298;21.164;2023-01-29T09:01:05;0.20;92.60
18317;DHT22;9284;52.298;21.164;2023-01-29T09:03:35;0.20;42.90
18317;DHT22;9284;52.298;21.164;2023-01-29T09:06:08;0.20;28.60
18317;DHT22;9284;52.298;21.164;2023-01-29T09:08:36;0.20;73.90
18317;DHT22;9284;52.298;21.164;2023-01-29T09:11:07;0.30;47.60
18317;DHT22;9284;52.298;21.164;2023-01-29T09:13:36;0.40;3.80
18317;DHT22;9284;52.298;21.164;2023-01-29T09:16:05;0.40;53.30
18317;DHT22;9284;52.298;21.164;2023-01-29T09:18:33;0.40;3.20
18317;DHT22;9284;52.298;21.164;2023-01-29T09:21:01;0.30;28.00
18317;DHT22;9284;52.298;21.164;2023-01-29T09:23:30;0.40;22.20
18317;DHT22;9284;52.298;21.164;2023-01-29T09:25:59;0.40;94.20
18317;DHT22;9284;52.298;21.164;2023-01-29T09:28:29;0.40;99.90
18317;DHT22;9284;52.298;21.164;2023-01-29T09:30:59;0.40;99.90
18317;DHT22;9284;52.298;21.164;2023-01-29T09:33:28;0.50;99.90
18317;DHT22;9284;52.298;21.164;2023-01-29T09:35:56;0.50;99.90
18317;DHT22;9284;52.298;21.164;2023-01-29T09:38:25;0.50;99.90
18317;DHT22;9284;52.298;21.164;2023-01-29T09:40:59;0.40;99.90
18317;DHT22;9284;52.298;21.164;2023-01-29T09:43:39;0.30;1.00
18317;DHT22;9284;52.298;21.164;2023-01-29T09:46:17;0.30;1.00
18317;DHT22;9284;52.298;21.164;2023-01-29T09:48:47;0.30;99.90
18317;DHT22;9284;52.298;21.164;2023-01-29T09:51:25;0.40;99.90
18317;DHT22;9284;52.298;21.164;2023-01-29T09:54:01;0.30;99.90
18317;DHT22;9284;52.298;21.164;2023-01-29T09:56:34;0.40;99.90
18317;DHT22;9284;52.298;21.164;2023-01-29T09:59:04;0.40;99.90
18317;DHT22;9284;52.298;21.164;2023-01-29T10:01:35;0.50;99.90
18317;DHT22;9284;52.298;21.164;2023-01-29T10:04:23;0.50;99.90
18317;DHT22;9284;52.298;21.164;2023-01-29T10:07:04;0.60;1.00
18317;DHT22;9284;52.298;21.164;2023-01-29T10:10:03;0.50;99.90
18317;DHT22;9284;52.298;21.164;2023-01-29T10:12:48;0.60;99.90
18317;DHT22;9284;52.298;21.164;2023-01-29T10:15:34;0.60;99.90
18317;DHT22;9284;52.298;21.164;2023-01-29T10:18:32;0.50;99.90
18317;DHT22;9284;52.298;21.164;2023-01-29T10:21:18;0.50;1.00
18317;DHT22;9284;52.298;21.164;2023-01-29T10:23:52;0.40;3.20
18317;DHT22;9284;52.298;21.164;2023-01-29T10:26:24;0.40;99.90
18317;DHT22;9284;52.298;21.164;2023-01-29T10:28:54;0.40;1.00
18317;DHT22;9284;52.298;21.164;2023-01-29T10:31:30;0.30;1.00
18317;DHT22;9284;52.298;21.164;2023-01-29T10:34:03;0.40;1.00
18317;DHT22;9284;52.298;21.164;2023-01-29T10:36:35;0.50;1.00
18317;DHT22;9284;52.298;21.164;2023-01-29T10:39:13;0.40;1.00
18317;DHT22;9284;52.298;21.164;2023-01-29T10:41:52;0.50;1.00
18317;DHT22;9284;52.298;21.164;2023-01-29T10:44:31;0.50;1.00
18317;DHT22;9284;52.298;21.164;2023-01-29T10:47:23;0.60;1.00
18317;DHT22;9284;52.298;21.164;2023-01-29T10:50:09;0.60;1.00
18317;DHT22;9284;52.298;21.164;2023-01-29T10:52:56;0.60;1.00
18317;DHT22;9284;52.298;21.164;2023-01-29T10:55:40;0.40;1.00
18317;DHT22;9284;52.298;21.164;2023-01-29T10:58:19;0.50;99.90
18317;DHT22;9284;52.298;21.164;2023-01-29T11:00:50;0.50;1.00
18317;DHT22;9284;52.298;21.164;2023-01-29T11:03:23;0.40;1.00
18317;DHT22;9284;52.298;21.164;2023-01-29T11:06:00;0.50;1.00
18317;DHT22;9284;52.298;21.164;2023-01-29T11:08:35;0.40;1.00
18317;DHT22;9284;52.298;21.164;2023-01-29T11:11:07;0.40;1.00
18317;DHT22;9284;52.298;21.164;2023-01-29T11:13:41;0.40;1.00
18317;DHT22;9284;52.298;21.164;2023-01-29T11:16:10;0.30;99.90
18317;DHT22;9284;52.298;21.164;2023-01-29T11:18:55;0.40;1.00
18317;DHT22;9284;52.298;21.164;2023-01-29T11:21:24;0.40;1.00
18317;DHT22;9284;52.298;21.164;2023-01-29T11:24:08;0.40;99.90
18317;DHT22;9284;52.298;21.164;2023-01-29T11:26:39;0.40;99.90
18317;DHT22;9284;52.298;21.164;2023-01-29T11:29:34;0.40;99.90
18317;DHT22;9284;52.298;21.164;2023-01-29T11:32:06;0.40;99.90
18317;DHT22;9284;52.298;21.164;2023-01-29T11:34:56;0.40;1.00
18317;DHT22;9284;52.298;21.164;2023-01-29T11:37:32;0.50;1.00
18317;DHT22;9284;52.298;21.164;2023-01-29T11:40:07;0.50;1.00
18317;DHT22;9284;52.298;21.164;2023-01-29T11:42:55;0.60;99.90
18317;DHT22;9284;52.298;21.164;2023-01-29T11:45:38;0.60;99.90
18317;DHT22;9284;52.298;21.164;2023-01-29T11:48:13;0.60;99.90
18317;DHT22;9284;52.298;21.164;2023-01-29T11:50:52;0.60;1.00
18317;DHT22;9284;52.298;21.164;2023-01-29T11:53:40;0.60;99.90
18317;DHT22;9284;52.298;21.164;2023-01-29T11:56:20;0.50;1.00
18317;DHT22;9284;52.298;21.164;2023-01-29T11:58:50;0.50;1.00
18317;DHT22;9284;52.298;21.164;2023-01-29T12:01:29;0.50;1.00
18317;DHT22;9284;52.298;21.164;2023-01-29T12:03:59;0.50;1.00
18317;DHT22;9284;52.298;21.164;2023-01-29T12:06:33;0.50;1.00
18317;DHT22;9284;52.298;21.164;2023-01-29T12:09:08;0.50;1.00
18317;DHT22;9284;52.298;21.164;2023-01-29T12:11:38;0.50;1.00
18317;DHT22;9284;52.298;21.164;2023-01-29T12:14:25;0.50;1.00
18317;DHT22;9284;52.298;21.164;2023-01-29T12:16:57;0.50;1.00
18317;DHT22;9284;52.298;21.164;2023-01-29T12:19:30;0.40;86.90
18317;DHT22;9284;52.298;21.164;2023-01-29T12:22:07;0.40;99.90
18317;DHT22;9284;52.298;21.164;2023-01-29T12:24:41;0.30;1.00
18317;DHT22;9284;52.298;21.164;2023-01-29T12:27:18;0.40;1.00
18317;DHT22;9284;52.298;21.164;2023-01-29T12:29:54;0.30;1.00
18317;DHT22;9284;52.298;21.164;2023-01-29T12:32:31;0.40;21.50
18317;DHT22;9284;52.298;21.164;2023-01-29T12:35:08;0.50;1.00
18317;DHT22;9284;52.298;21.164;2023-01-29T12:37:47;0.40;1.00
18317;DHT22;9284;52.298;21.164;2023-01-29T12:40:17;0.50;1.00
18317;DHT22;9284;52.298;21.164;2023-01-29T12:42:48;0.40;99.90
18317;DHT22;9284;52.298;21.164;2023-01-29T12:45:19;0.50;99.90
18317;DHT22;9284;52.298;21.164;2023-01-29T12:47:51;0.30;99.90
18317;DHT22;9284;52.298;21.164;2023-01-29T12:50:24;0.30;99.90
18317;DHT22;9284;52.298;21.164;2023-01-29T12:53:00;0.30;99.90
18317;DHT22;9284;52.298;21.164;2023-01-29T12:55:33;0.40;99.90
18317;DHT22;9284;52.298;21.164;2023-01-29T12:58:11;0.40;99.90
18317;DHT22;9284;52.298;21.164;2023-01-29T13:00:49;0.40;99.90
18317;DHT22;9284;52.298;21.164;2023-01-29T13:03:28;0.40;99.90
18317;DHT22;9284;52.298;21.164;2023-01-29T13:06:02;0.40;1.00
18317;DHT22;9284;52.298;21.164;2023-01-29T13:08:38;0.40;1.00
18317;DHT22;9284;52.298;21.164;2023-01-29T13:11:15;0.30;1.00
18317;DHT22;9284;52.298;21.164;2023-01-29T13:14:03;0.30;1.00
18317;DHT22;9284;52.298;21.164;2023-01-29T13:16:43;0.40;1.00
18317;DHT22;9284;52.298;21.164;2023-01-29T13:19:19;0.30;56.30
18317;DHT22;9284;52.298;21.164;2023-01-29T13:21:50;0.40;63.40
18317;DHT22;9284;52.298;21.164;2023-01-29T13:24:23;0.40;99.90
18317;DHT22;9284;52.298;21.164;2023-01-29T13:26:55;0.30;1.00
18317;DHT22;9284;52.298;21.164;2023-01-29T13:29:25;0.40;1.00
18317;DHT22;9284;52.298;21.164;2023-01-29T13:31:56;0.30;99.90
18317;DHT22;9284;52.298;21.164;2023-01-29T13:34:27;0.30;1.00
18317;DHT22;9284;52.298;21.164;2023-01-29T13:37:00;0.20;99.90
18317;DHT22;9284;52.298;21.164;2023-01-29T13:39:35;0.30;1.00
18317;DHT22;9284;52.298;21.164;2023-01-29T13:42:16;0.30;1.00
18317;DHT22;9284;52.298;21.164;2023-01-29T13:44:47;0.20;38.50
18317;DHT22;9284;52.298;21.164;2023-01-29T13:47:22;0.20;61.70
18317;DHT22;9284;52.298;21.164;2023-01-29T13:49:56;0.40;33.60
18317;DHT22;9284;52.298;21.164;2023-01-29T13:52:35;0.20;1.00
18317;DHT22;9284;52.298;21.164;2023-01-29T13:55:21;0.20;1.00
18317;DHT22;9284;52.298;21.164;2023-01-29T13:57:53;0.20;99.90
18317;DHT22;9284;52.298;21.164;2023-01-29T14:00:55;0.20;99.90
18317;DHT22;9284;52.298;21.164;2023-01-29T14:03:52;0.20;99.90
18317;DHT22;9284;52.298;21.164;2023-01-29T14:06:48;0.10;99.90
18317;DHT22;9284;52.298;21.164;2023-01-29T14:12:36;0.20;1.00
18317;DHT22;9284;52.298;21.164;2023-01-29T14:15:18;0.20;1.00
18317;DHT22;9284;52.298;21.164;2023-01-29T14:20:57;0.30;1.00
18317;DHT22;9284;52.298;21.164;2023-01-29T14:23:34;0.10;1.00
18317;DHT22;9284;52.298;21.164;2023-01-29T14:26:20;0.10;1.00
18317;DHT22;9284;52.298;21.164;2023-01-29T14:29:00;0.10;99.90
18317;DHT22;9284;52.298;21.164;2023-01-29T14:31:35;0.10;99.90
18317;DHT22;9284;52.298;21.164;2023-01-29T14:34:11;0.10;99.90
18317;DHT22;9284;52.298;21.164;2023-01-29T14:36:42;0.10;99.90
18317;DHT22;9284;52.298;21.164;2023-01-29T14:39:24;0.10;99.90
18317;DHT22;9284;52.298;21.164;2023-01-29T14:41:55;0.10;99.90
18317;DHT22;9284;52.298;21.164;2023-01-29T14:47:57;0.10;1.00
18317;DHT22;9284;52.298;21.164;2023-01-29T14:50:55;0.00;1.00
18317;DHT22;9284;52.298;21.164;2023-01-29T14:53:44;0.00;1.00
18317;DHT22;9284;52.298;21.164;2023-01-29T14:56:15;0.00;1.00
18317;DHT22;9284;52.298;21.164;2023-01-29T14:58:46;0.00;1.00
18317;DHT22;9284;52.298;21.164;2023-01-29T15:01:22;0.00;1.00
18317;DHT22;9284;52.298;21.164;2023-01-29T15:03:58;0.00;1.00
18317;DHT22;9284;52.298;21.164;2023-01-29T15:06:37;0.00;1.00
18317;DHT22;9284;52.298;21.164;2023-01-29T15:09:15;0.00;1.00
18317;DHT22;9284;52.298;21.164;2023-01-29T15:11:51;0.00;1.00
18317;DHT22;9284;52.298;21.164;2023-01-29T15:14:28;0.00;1.00
18317;DHT22;9284;52.298;21.164;2023-01-29T15:17:04;0.00;31.90
18317;DHT22;9284;52.298;21.164;2023-01-29T15:19:37;0.00;17.80
18317;DHT22;9284;52.298;21.164;2023-01-29T15:22:12;0.10;19.00
18317;DHT22;9284;52.298;21.164;2023-01-29T15:24:42;0.00;95.40
18317;DHT22;9284;52.298;21.164;2023-01-29T15:27:14;0.00;99.90
18317;DHT22;9284;52.298;21.164;2023-01-29T15:29:46;0.10;99.90
18317;DHT22;9284;52.298;21.164;2023-01-29T15:32:23;0.00;99.90
18317;DHT22;9284;52.298;21.164;2023-01-29T15:34:58;0.10;99.90
18317;DHT22;9284;52.298;21.164;2023-01-29T15:37:30;0.20;99.90
18317;DHT22;9284;52.298;21.164;2023-01-29T15:40:00;0.00;99.90
18317;DHT22;9284;52.298;21.164;2023-01-29T15:42:42;0.10;99.90
18317;DHT22;9284;52.298;21.164;2023-01-29T15:45:26;0.00;64.20
18317;DHT22;9284;52.298;21.164;2023-01-29T15:48:01;0.10;95.50
18317;DHT22;9284;52.298;21.164;2023-01-29T15:50:35;0.10;1.00
18317;DHT22;9284;52.298;21.164;2023-01-29T15:53:11;0.10;1.00
18317;DHT22;9284;52.298;21.164;2023-01-29T15:55:41;0.10;1.00
18317;DHT22;9284;52.298;21.164;2023-01-29T15:58:14;0.10;1.00
18317;DHT22;9284;52.298;21.164;2023-01-29T16:00:47;0.10;1.00
18317;DHT22;9284;52.298;21.164;2023-01-29T16:03:20;0.10;1.00
18317;DHT22;9284;52.298;21.164;2023-01-29T16:05:51;0.20;1.00
18317;DHT22;9284;52.298;21.164;2023-01-29T16:08:20;0.10;1.00
18317;DHT22;9284;52.298;21.164;2023-01-29T16:10:51;0.10;1.00
18317;DHT22;9284;52.298;21.164;2023-01-29T16:13:23;0.10;1.00
18317;DHT22;9284;52.298;21.164;2023-01-29T16:15:56;0.10;1.00
18317;DHT22;9284;52.298;21.164;2023-01-29T16:18:29;0.10;1.00
18317;DHT22;9284;52.298;21.164;2023-01-29T16:21:03;0.20;1.00
18317;DHT22;9284;52.298;21.164;2023-01-29T16:23:39;0.20;1.00
18317;DHT22;9284;52.298;21.164;2023-01-29T16:26:13;0.10;1.00
18317;DHT22;9284;52.298;21.164;2023-01-29T16:28:43;0.10;1.00
18317;DHT22;9284;52.298;21.164;2023-01-29T16:31:13;0.10;51.00
18317;DHT22;9284;52.298;21.164;2023-01-29T16:33:47;0.10;99.90
18317;DHT22;9284;52.298;21.164;2023-01-29T16:36:18;0.10;99.90
18317;DHT22;9284;52.298;21.164;2023-01-29T16:38:49;0.20;99.90
18317;DHT22;9284;52.298;21.164;2023-01-29T16:41:29;0.20;99.90
18317;DHT22;9284;52.298;21.164;2023-01-29T16:43:59;0.20;99.90
18317;DHT22;9284;52.298;21.164;2023-01-29T16:46:33;0.10;99.90
18317;DHT22;9284;52.298;21.164;2023-01-29T16:49:03;0.20;1.00
18317;DHT22;9284;52.298;21.164;2023-01-29T16:51:53;0.20;1.00
18317;DHT22;9284;52.298;21.164;2023-01-29T16:54:23;0.10;1.00
18317;DHT22;9284;52.298;21.164;2023-01-29T16:56:55;0.20;1.00
18317;DHT22;9284;52.298;21.164;2023-01-29T16:59:31;0.20;1.00
18317;DHT22;9284;52.298;21.164;2023-01-29T17:02:00;0.20;99.90
18317;DHT22;9284;52.298;21.164;2023-01-29T17:04:29;0.20;99.90
18317;DHT22;9284;52.298;21.164;2023-01-29T17:07:00;0.20;99.90
18317;DHT22;9284;52.298;21.164;2023-01-29T17:09:30;0.10;99.90
18317;DHT22;9284;52.298;21.164;2023-01-29T17:12:03;0.20;99.90
18317;DHT22;9284;52.298;21.164;2023-01-29T17:14:34;0.10;1.00
18317;DHT22;9284;52.298;21.164;2023-01-29T17:17:06;0.10;1.00
18317;DHT22;9284;52.298;21.164;2023-01-29T17:19:41;0.10;1.00
18317;DHT22;9284;52.298;21.164;2023-01-29T17:22:14;0.20;1.00
18317;DHT22;9284;52.298;21.164;2023-01-29T17:24:44;0.20;1.00
18317;DHT22;9284;52.298;21.164;2023-01-29T17:27:19;0.10;1.00
18317;DHT22;9284;52.298;21.164;2023-01-29T17:29:48;0.10;1.00
18317;DHT22;9284;52.298;21.164;2023-01-29T17:32:23;0.10;1.00
18317;DHT22;9284;52.298;21.164;2023-01-29T17:35:11;0.10;1.00
18317;DHT22;9284;52.298;21.164;2023-01-29T17:37:41;0.10;1.00
18317;DHT22;9284;52.298;21.164;2023-01-29T17:40:17;0.10;1.00
18317;DHT22;9284;52.298;21.164;2023-01-29T17:42:47;0.10;1.00
18317;DHT22;9284;52.298;21.164;2023-01-29T17:45:15;0.20;1.00
18317;DHT22;9284;52.298;21.164;2023-01-29T17:47:44;0.10;1.00
18317;DHT22;9284;52.298;21.164;2023-01-29T17:50:18;0.10;1.00
18317;DHT22;9284;52.298;21.164;2023-01-29T17:52:49;0.10;1.00
18317;DHT22;9284;52.298;21.164;2023-01-29T17:55:19;0.10;1.00
18317;DHT22;9284;52.298;21.164;2023-01-29T17:57:47;0.10;1.00
18317;DHT22;9284;52.298;21.164;2023-01-29T18:00:18;0.10;1.00
18317;DHT22;9284;52.298;21.164;2023-01-29T18:02:47;0.10;1.00
18317;DHT22;9284;52.298;21.164;2023-01-29T18:05:16;0.10;1.00
18317;DHT22;9284;52.298;21.164;2023-01-29T18:07:46;0.10;1.00
18317;DHT22;9284;52.298;21.164;2023-01-29T18:10:20;0.10;1.00
18317;DHT22;9284;52.298;21.164;2023-01-29T18:12:48;0.10;1.00
18317;DHT22;9284;52.298;21.164;2023-01-29T18:15:17;0.20;1.00
18317;DHT22;9284;52.298;21.164;2023-01-29T18:17:46;0.20;1.00
18317;DHT22;9284;52.298;21.164;2023-01-29T18:20:20;0.20;99.90
18317;DHT22;9284;52.298;21.164;2023-01-29T18:22:49;0.20;99.90
18317;DHT22;9284;52.298;21.164;2023-01-29T18:25:19;0.20;99.90
18317;DHT22;9284;52.298;21.164;2023-01-29T18:27:50;0.20;99.90
18317;DHT22;9284;52.298;21.164;2023-01-29T18:30:19;0.30;99.90
18317;DHT22;9284;52.298;21.164;2023-01-29T18:32:47;0.20;99.90
18317;DHT22;9284;52.298;21.164;2023-01-29T18:35:16;0.20;99.90
18317;DHT22;9284;52.298;21.164;2023-01-29T18:37:45;0.20;90.40
18317;DHT22;9284;52.298;21.164;2023-01-29T18:40:13;0.10;11.10
18317;DHT22;9284;52.298;21.164;2023-01-29T18:42:45;0.20;1.00
18317;DHT22;9284;52.298;21.164;2023-01-29T18:45:13;0.20;1.00
18317;DHT22;9284;52.298;21.164;2023-01-29T18:47:42;0.20;1.00
18317;DHT22;9284;52.298;21.164;2023-01-29T18:50:12;0.20;1.00
18317;DHT22;9284;52.298;21.164;2023-01-29T18:52:40;0.30;1.00
18317;DHT22;9284;52.298;21.164;2023-01-29T18:55:10;0.20;1.00
18317;DHT22;9284;52.298;21.164;2023-01-29T18:57:38;0.20;1.00
18317;DHT22;9284;52.298;21.164;2023-01-29T19:00:28;0.20;1.00
18317;DHT22;9284;52.298;21.164;2023-01-29T19:02:56;0.20;11.50
18317;DHT22;9284;52.298;21.164;2023-01-29T19:05:24;0.20;91.70
18317;DHT22;9284;52.298;21.164;2023-01-29T19:07:53;0.20;47.20
18317;DHT22;9284;52.298;21.164;2023-01-29T19:10:21;0.20;24.20
18317;DHT22;9284;52.298;21.164;2023-01-29T19:12:49;0.20;63.00
18317;DHT22;9284;52.298;21.164;2023-01-29T19:15:17;0.40;63.00
18317;DHT22;9284;52.298;21.164;2023-01-29T19:17:49;0.20;65.80
18317;DHT22;9284;52.298;21.164;2023-01-29T19:20:18;0.30;19.50
18317;DHT22;9284;52.298;21.164;2023-01-29T19:22:46;0.30;1.00
18317;DHT22;9284;52.298;21.164;2023-01-29T19:25:14;0.30;1.00
18317;DHT22;9284;52.298;21.164;2023-01-29T19:27:44;0.30;1.00
18317;DHT22;9284;52.298;21.164;2023-01-29T19:30:12;0.30;1.00
18317;DHT22;9284;52.298;21.164;2023-01-29T19:32:41;0.30;1.00
18317;DHT22;9284;52.298;21.164;2023-01-29T19:35:10;0.30;1.00
18317;DHT22;9284;52.298;21.164;2023-01-29T19:37:38;0.30;1.00
18317;DHT22;9284;52.298;21.164;2023-01-29T19:40:08;0.30;1.00
18317;DHT22;9284;52.298;21.164;2023-01-29T19:42:36;0.30;1.00
18317;DHT22;9284;52.298;21.164;2023-01-29T19:45:07;0.30;1.00
18317;DHT22;9284;52.298;21.164;2023-01-29T19:47:37;0.30;99.90
18317;DHT22;9284;52.298;21.164;2023-01-29T19:50:06;0.40;99.90
18317;DHT22;9284;52.298;21.164;2023-01-29T19:52:36;0.30;99.90
18317;DHT22;9284;52.298;21.164;2023-01-29T19:55:17;0.30;99.90
18317;DHT22;9284;52.298;21.164;2023-01-29T19:57:47;0.30;99.90
18317;DHT22;9284;52.298;21.164;2023-01-29T20:00:16;0.30;99.90
18317;DHT22;9284;52.298;21.164;2023-01-29T20:02:45;0.40;99.90
18317;DHT22;9284;52.298;21.164;2023-01-29T20:05:14;0.40;99.90
18317;DHT22;9284;52.298;21.164;2023-01-29T20:07:46;0.40;99.90
18317;DHT22;9284;52.298;21.164;2023-01-29T20:10:15;0.50;99.90
18317;DHT22;9284;52.298;21.164;2023-01-29T20:12:45;0.40;99.90
18317;DHT22;9284;52.298;21.164;2023-01-29T20:15:13;0.40;99.90
18317;DHT22;9284;52.298;21.164;2023-01-29T20:17:42;0.40;99.90
18317;DHT22;9284;52.298;21.164;2023-01-29T20:20:11;0.30;1.00
18317;DHT22;9284;52.298;21.164;2023-01-29T20:22:41;0.40;1.00
18317;DHT22;9284;52.298;21.164;2023-01-29T20:25:10;0.30;1.00
18317;DHT22;9284;52.298;21.164;2023-01-29T20:27:40;0.40;1.00
18317;DHT22;9284;52.298;21.164;2023-01-29T20:30:09;0.50;1.00
18317;DHT22;9284;52.298;21.164;2023-01-29T20:32:38;0.40;1.00
18317;DHT22;9284;52.298;21.164;2023-01-29T20:35:07;0.50;1.00
18317;DHT22;9284;52.298;21.164;2023-01-29T20:37:36;0.40;1.00
18317;DHT22;9284;52.298;21.164;2023-01-29T20:40:05;0.40;1.00
18317;DHT22;9284;52.298;21.164;2023-01-29T20:42:34;0.40;1.00
18317;DHT22;9284;52.298;21.164;2023-01-29T20:45:03;0.40;1.00
18317;DHT22;9284;52.298;21.164;2023-01-29T20:47:32;0.40;1.00